Time;durP1;ratioP1;P1;durP2;ratioP2;P2;SDS_P1;SDS_P2;PMS_P1;PMS_P2;Temp;Humidity;BMP_temperature;BMP_pressure;BME280_temperature;BME280_humidity;BME280_pressure;Samples;Min_cycle;Max_cycle;Signal;HPM_P1;HPM_P2
2021/10/27 00:01:03;;;;;;;108.97;62.13;;;;;;;4.67;100.00;99862.75;2080199;28;20223;-75
2021/10/27 00:02:05;;;;;;;113.15;60.80;;;;;;;4.70;100.00;99862.28;2079783;28;20215;-76
2021/10/27 00:03:07;;;;;;;116.10;61.60;;;;;;;4.69;100.00;99858.84;2080619;28;20297;-76
2021/10/27 00:04:08;;;;;;;104.07;61.60;;;;;;;4.69;100.00;99855.38;2080710;28;20310;-75
2021/10/27 00:05:12;;;;;;;105.68;59.92;;;;;;;4.67;100.00;99857.47;2079934;28;20274;-76
2021/10/27 00:06:14;;;;;;;101.88;59.70;;;;;;;4.66;100.00;99861.16;2080438;28;20219;-76
2021/10/27 00:07:16;;;;;;;104.95;61.80;;;;;;;4.64;100.00;99864.03;2079618;28;20223;-76
2021/10/27 00:08:18;;;;;;;103.70;60.08;;;;;;;4.61;100.00;99864.50;2079554;28;20302;-75
2021/10/27 00:09:20;;;;;;;108.40;62.20;;;;;;;4.59;100.00;99860.47;2080182;28;20673;-75
2021/10/27 00:10:22;;;;;;;102.68;59.20;;;;;;;4.60;100.00;99862.09;2080964;28;20219;-76
2021/10/27 00:11:26;;;;;;;106.55;59.78;;;;;;;4.64;100.00;99860.59;2080905;28;20227;-75
2021/10/27 00:12:29;;;;;;;106.32;60.05;;;;;;;4.61;100.00;99859.22;2080709;28;20227;-76
2021/10/27 00:13:37;;;;;;;101.13;60.17;;;;;;;4.61;100.00;99863.72;2081126;28;20302;-75
2021/10/27 00:14:38;;;;;;;119.20;63.35;;;;;;;4.63;100.00;99869.56;2080681;28;20294;-75
2021/10/27 00:15:41;;;;;;;107.20;59.15;;;;;;;4.62;100.00;99870.59;2079618;28;20223;-76
2021/10/27 00:16:43;;;;;;;101.00;59.90;;;;;;;4.62;100.00;99867.97;2079902;28;22582;-76
2021/10/27 00:17:46;;;;;;;102.22;60.22;;;;;;;4.58;100.00;99864.16;2080207;28;20226;-75
2021/10/27 00:18:48;;;;;;;101.78;59.33;;;;;;;4.52;100.00;99864.09;2080279;28;20223;-76
2021/10/27 00:19:52;;;;;;;109.18;60.45;;;;;;;4.49;100.00;99861.91;2079248;28;20223;-76
2021/10/27 00:20:56;;;;;;;106.00;60.35;;;;;;;4.49;100.00;99861.91;2071873;28;20322;-76
2021/10/27 00:22:00;;;;;;;105.00;60.75;;;;;;;4.49;100.00;99856.63;2080332;28;20338;-75
2021/10/27 00:23:02;;;;;;;110.20;62.15;;;;;;;4.48;100.00;99859.50;2080927;28;20223;-76
2021/10/27 00:24:04;;;;;;;104.72;59.05;;;;;;;4.49;100.00;99867.19;2081035;28;20865;-76
2021/10/27 00:25:06;;;;;;;105.10;61.30;;;;;;;4.47;100.00;99848.13;2081050;28;20223;-75
2021/10/27 00:26:11;;;;;;;106.50;61.03;;;;;;;4.52;100.00;99861.44;2079705;28;20230;-76
2021/10/27 00:27:12;;;;;;;104.70;60.08;;;;;;;4.52;100.00;99856.16;2080306;28;20614;-76
2021/10/27 00:28:14;;;;;;;105.80;61.93;;;;;;;4.50;100.00;99855.56;2080869;28;20227;-75
2021/10/27 00:29:16;;;;;;;104.50;60.92;;;;;;;4.51;100.00;99854.53;2080967;28;20677;-75
2021/10/27 00:30:18;;;;;;;109.50;62.30;;;;;;;4.52;100.00;99858.00;2081038;28;20223;-76
2021/10/27 00:31:21;;;;;;;108.47;60.10;;;;;;;4.53;100.00;99865.69;2080110;28;20232;-75
2021/10/27 00:32:24;;;;;;;113.95;60.45;;;;;;;4.51;100.00;99854.53;2079824;28;20677;-77
2021/10/27 00:33:29;;;;;;;98.10;59.15;;;;;;;4.53;100.00;99860.41;2080594;28;20755;-76
2021/10/27 00:34:31;;;;;;;102.18;59.75;;;;;;;4.49;100.00;99859.25;2080901;28;20227;-75
2021/10/27 00:35:34;;;;;;;107.10;59.97;;;;;;;4.50;100.00;99860.84;2080966;28;20258;-75
2021/10/27 00:36:37;;;;;;;100.15;60.63;;;;;;;4.47;100.00;99858.69;2079977;28;20738;-75
2021/10/27 00:37:38;;;;;;;98.82;60.15;;;;;;;4.48;100.00;99862.13;2070807;28;20315;-75
2021/10/27 00:38:40;;;;;;;102.15;59.55;;;;;;;4.46;100.00;99864.22;2080182;28;20227;-75
2021/10/27 00:39:42;;;;;;;101.40;59.85;;;;;;;4.45;100.00;99866.06;2080871;28;20281;-76
2021/10/27 00:40:46;;;;;;;101.43;59.80;;;;;;;4.41;100.00;99862.28;2079632;28;20729;-75
2021/10/27 00:41:50;;;;;;;98.97;59.22;;;;;;;4.40;100.00;99860.66;2080025;28;20227;-75
2021/10/27 00:42:52;;;;;;;99.28;58.67;;;;;;;4.38;100.00;99859.31;2080115;28;20235;-74
2021/10/27 00:43:58;;;;;;;99.38;59.85;;;;;;;4.35;100.00;99865.06;2079598;28;20243;-77
2021/10/27 00:45:03;;;;;;;101.25;60.28;;;;;;;4.31;100.00;99864.72;2071745;28;20235;-77
2021/10/27 00:46:04;;;;;;;101.80;58.50;;;;;;;4.30;100.00;99860.47;2071293;28;20225;-77
2021/10/27 00:47:08;;;;;;;101.22;59.42;;;;;;;4.34;100.00;99864.25;2080194;28;20686;-77
2021/10/27 00:48:17;;;;;;;96.30;58.10;;;;;;;4.34;100.00;99864.25;2080584;28;20251;-76
2021/10/27 00:49:19;;;;;;;95.93;58.45;;;;;;;4.32;100.00;99868.97;2079640;28;20234;-74
2021/10/27 00:50:21;;;;;;;110.50;59.03;;;;;;;4.27;100.00;99863.59;2071357;28;20224;-75
2021/10/27 00:51:22;;;;;;;95.55;57.58;;;;;;;4.27;100.00;99870.72;2079205;28;20579;-74
2021/10/27 00:52:24;;;;;;;103.95;58.22;;;;;;;4.26;100.00;99875.22;2079633;28;20237;-75
2021/10/27 00:53:26;;;;;;;100.25;58.47;;;;;;;4.23;100.00;99878.31;2071738;28;20228;-76
2021/10/27 00:54:35;;;;;;;104.75;60.35;;;;;;;4.22;100.00;99876.69;2071132;28;20761;-76
2021/10/27 00:55:37;;;;;;;100.97;59.75;;;;;;;4.25;100.00;99876.22;2080144;28;20744;-77
2021/10/27 00:56:38;;;;;;;100.40;57.67;;;;;;;4.26;100.00;99877.84;2080166;28;20231;-76
2021/10/27 00:57:40;;;;;;;100.00;58.60;;;;;;;4.30;100.00;99878.97;2080728;28;20696;-76
2021/10/27 00:58:42;;;;;;;102.28;59.15;;;;;;;4.30;100.00;99865.78;2079515;28;20227;-76
2021/10/27 00:59:45;;;;;;;94.75;58.50;;;;;;;4.33;100.00;99877.69;2080027;28;20285;-75
2021/10/27 01:00:47;;;;;;;96.05;58.50;;;;;;;4.37;100.00;99868.28;2080594;28;20219;-76
2021/10/27 01:01:48;;;;;;;105.50;59.45;;;;;;;4.39;100.00;99867.00;2080669;28;20671;-76
2021/10/27 01:02:50;;;;;;;95.88;56.70;;;;;;;4.40;100.00;99871.25;2079777;28;20294;-75
2021/10/27 01:03:52;;;;;;;94.97;58.30;;;;;;;4.43;100.00;99867.31;2080089;28;20249;-75
2021/10/27 01:04:55;;;;;;;96.30;57.92;;;;;;;4.46;100.00;99874.78;2080390;28;20238;-76
2021/10/27 01:05:56;;;;;;;104.35;60.75;;;;;;;4.45;100.00;99868.72;2079519;28;20239;-75
2021/10/27 01:06:59;;;;;;;107.60;58.33;;;;;;;4.46;100.00;99862.38;2079887;28;20258;-76
2021/10/27 01:08:02;;;;;;;92.32;56.70;;;;;;;4.44;100.00;99864.47;2080684;28;20219;-76
2021/10/27 01:09:06;;;;;;;99.10;58.40;;;;;;;4.45;100.00;99866.06;2080690;28;20219;-76
2021/10/27 01:10:08;;;;;;;94.65;57.80;;;;;;;4.43;100.00;99862.03;2080301;28;20585;-75
2021/10/27 01:11:11;;;;;;;96.57;57.13;;;;;;;4.44;100.00;99867.09;2080542;28;20223;-75
2021/10/27 01:12:13;;;;;;;92.65;57.20;;;;;;;4.44;100.00;99867.09;2079421;28;20235;-75
2021/10/27 01:13:15;;;;;;;96.53;57.88;;;;;;;4.44;100.00;99867.09;2079212;28;20306;-75
2021/10/27 01:14:16;;;;;;;95.82;56.85;;;;;;;4.43;100.00;99868.16;2079528;28;20223;-75
2021/10/27 01:15:22;;;;;;;102.25;58.38;;;;;;;4.43;100.00;99868.16;2079949;28;20254;-74
2021/10/27 01:16:24;;;;;;;99.53;59.33;;;;;;;4.42;100.00;99865.72;2080194;28;20223;-74
2021/10/27 01:17:26;;;;;;;95.38;57.78;;;;;;;4.40;100.00;99863.31;2080561;28;20234;-75
2021/10/27 01:18:30;;;;;;;95.80;57.70;;;;;;;4.40;100.00;99858.03;2079127;28;20697;-75
2021/10/27 01:19:43;;;;;;;95.00;55.75;;;;;;;4.44;100.00;99864.47;2079786;28;20223;-75
2021/10/27 01:20:46;;;;;;;101.90;56.72;;;;;;;4.43;100.00;99862.03;2080143;28;20569;-75
2021/10/27 01:21:49;;;;;;;96.97;57.20;;;;;;;4.48;100.00;99855.00;2078603;28;20593;-74
2021/10/27 01:22:52;;;;;;;105.97;59.65;;;;;;;4.50;100.00;99860.84;2079951;28;20309;-75
2021/10/27 01:23:53;;;;;;;95.75;57.42;;;;;;;4.52;100.00;99864.09;2079439;28;20776;-74
2021/10/27 01:24:55;;;;;;;105.85;58.97;;;;;;;4.48;100.00;99862.13;2071494;28;20578;-75
2021/10/27 01:25:57;;;;;;;101.03;59.45;;;;;;;4.45;100.00;99859.97;2079261;28;20732;-75
2021/10/27 01:27:00;;;;;;;96.45;57.97;;;;;;;4.41;100.00;99861.47;2079598;28;20223;-76
2021/10/27 01:28:03;;;;;;;91.28;56.95;;;;;;;4.37;100.00;99858.50;2079779;28;20234;-75
2021/10/27 01:29:04;;;;;;;102.82;59.30;;;;;;;4.35;100.00;99857.94;2071995;28;20222;-75
2021/10/27 01:30:11;;;;;;;102.22;59.13;;;;;;;4.30;100.00;99855.19;2079903;28;20269;-76
2021/10/27 01:31:13;;;;;;;96.57;57.10;;;;;;;4.24;100.00;99858.78;2080264;28;20299;-76
2021/10/27 01:32:22;;;;;;;99.22;58.20;;;;;;;4.19;100.00;99861.34;2080606;28;20223;-75
2021/10/27 01:33:23;;;;;;;89.80;57.28;;;;;;;4.13;100.00;99857.78;2080138;28;20632;-75
2021/10/27 01:34:26;;;;;;;91.95;56.70;;;;;;;4.06;100.00;99856.28;2079168;28;20258;-76
2021/10/27 01:35:29;;;;;;;93.15;58.55;;;;;;;4.03;100.00;99862.06;2079750;28;20289;-76
2021/10/27 01:36:31;;;;;;;95.68;58.30;;;;;;;3.96;100.00;99865.63;2080503;28;20302;-76
2021/10/27 01:37:33;;;;;;;101.95;57.67;;;;;;;3.92;100.00;99868.97;2080502;28;20724;-76
2021/10/27 01:38:37;;;;;;;92.15;55.25;;;;;;;3.87;100.00;99869.66;2080399;28;20666;-76
2021/10/27 01:39:38;;;;;;;97.72;57.08;;;;;;;3.80;100.00;99866.31;2079137;28;20564;-76
2021/10/27 01:40:40;;;;;;;108.85;59.78;;;;;;;3.78;100.00;99870.25;2071452;28;20228;-76
2021/10/27 01:41:42;;;;;;;93.03;56.75;;;;;;;3.73;100.00;99870.91;2079456;28;20235;-76
2021/10/27 01:42:44;;;;;;;98.82;58.78;;;;;;;3.75;100.00;99882.06;2087975;28;20219;-76
2021/10/27 01:43:48;;;;;;;108.65;62.45;;;;;;;3.72;100.00;99876.44;2080524;28;20242;-76
2021/10/27 01:44:51;;;;;;;97.65;58.60;;;;;;;3.73;100.00;99883.31;2079043;28;20215;-75
2021/10/27 01:45:53;;;;;;;103.18;57.90;;;;;;;3.73;100.00;99884.13;2071241;28;20240;-76
2021/10/27 01:46:54;;;;;;;101.35;59.88;;;;;;;3.78;100.00;99878.97;2079650;28;20772;-77
2021/10/27 01:47:58;;;;;;;113.47;60.53;;;;;;;3.80;100.00;99879.53;2080533;28;20251;-76
2021/10/27 01:49:00;;;;;;;106.45;58.38;;;;;;;3.89;100.00;99888.69;2079194;28;20255;-76
2021/10/27 01:50:05;;;;;;;107.57;59.83;;;;;;;3.93;100.00;99883.78;2071228;28;20227;-75
2021/10/27 01:51:08;;;;;;;98.88;59.28;;;;;;;3.98;100.00;99887.31;2079404;28;20693;-76
2021/10/27 01:52:11;;;;;;;107.25;59.22;;;;;;;4.04;100.00;99892.69;2080433;28;20231;-76
2021/10/27 01:53:13;;;;;;;103.35;59.70;;;;;;;4.05;100.00;99889.81;2079096;28;20227;-75
2021/10/27 01:54:15;;;;;;;97.03;58.70;;;;;;;4.07;100.00;99892.22;2079665;28;20219;-76
2021/10/27 01:55:16;;;;;;;106.72;58.63;;;;;;;4.09;100.00;99887.53;2079003;28;20230;-76
2021/10/27 01:56:20;;;;;;;95.80;57.95;;;;;;;4.12;100.00;99890.50;2071471;28;20605;-75
2021/10/27 01:57:24;;;;;;;93.80;57.40;;;;;;;4.13;100.00;99891.31;2079060;28;20226;-76
2021/10/27 01:58:26;;;;;;;100.75;59.00;;;;;;;4.16;100.00;99889.00;2079090;28;20315;-76
2021/10/27 01:59:28;;;;;;;99.25;59.38;;;;;;;4.17;100.00;99892.44;2071458;28;20311;-75
2021/10/27 02:00:30;;;;;;;101.40;58.17;;;;;;;4.18;100.00;99889.59;2079791;28;20223;-74
2021/10/27 02:01:33;;;;;;;102.05;58.38;;;;;;;4.23;100.00;99888.88;2079079;28;20231;-75
2021/10/27 02:02:35;;;;;;;107.18;59.65;;;;;;;4.25;100.00;99897.34;2071543;28;20224;-74
2021/10/27 02:03:37;;;;;;;102.55;57.78;;;;;;;4.26;100.00;99888.41;2079461;28;20266;-75
2021/10/27 02:04:40;;;;;;;100.72;59.08;;;;;;;4.30;100.00;99892.19;2078359;28;20231;-75
2021/10/27 02:05:43;;;;;;;111.88;61.97;;;;;;;4.33;100.00;99889.06;2079636;28;20227;-75
2021/10/27 02:06:52;;;;;;;108.28;59.85;;;;;;;4.36;100.00;99882.53;2079011;28;20728;-76
2021/10/27 02:07:54;;;;;;;96.28;57.70;;;;;;;4.40;100.00;99891.56;2071344;28;20678;-76
2021/10/27 02:08:57;;;;;;;101.80;59.88;;;;;;;4.42;100.00;99898.22;2070906;28;20674;-75
2021/10/27 02:09:58;;;;;;;105.43;60.35;;;;;;;4.44;100.00;99904.09;2070586;28;20216;-76
2021/10/27 02:11:01;;;;;;;108.50;59.45;;;;;;;4.45;100.00;99892.50;2070763;28;20696;-76
2021/10/27 02:12:02;;;;;;;104.90;61.45;;;;;;;4.49;100.00;99900.72;2079635;28;20715;-75
2021/10/27 02:13:04;;;;;;;105.25;60.10;;;;;;;4.48;100.00;99892.00;2080286;28;20247;-76
2021/10/27 02:14:06;;;;;;;99.80;60.60;;;;;;;4.50;100.00;99894.41;2080395;28;20281;-76
2021/10/27 02:15:09;;;;;;;103.85;61.40;;;;;;;4.51;100.00;99896.81;2079816;28;20310;-75
2021/10/27 02:16:11;;;;;;;101.60;57.60;;;;;;;4.49;100.00;99898.09;2080322;28;20223;-76
2021/10/27 02:17:14;;;;;;;101.22;59.72;;;;;;;4.50;100.00;99894.41;2080341;28;20592;-76
2021/10/27 02:18:15;;;;;;;104.60;59.83;;;;;;;4.49;100.00;99898.88;2080254;28;20323;-76
2021/10/27 02:19:18;;;;;;;97.72;59.13;;;;;;;4.46;100.00;99894.09;2079603;28;20227;-76
2021/10/27 02:20:20;;;;;;;100.18;59.42;;;;;;;4.45;100.00;99889.03;2079680;28;20223;-76
2021/10/27 02:21:23;;;;;;;103.88;60.97;;;;;;;4.43;100.00;99889.28;2078292;28;20231;-76
2021/10/27 02:22:26;;;;;;;100.28;60.00;;;;;;;4.38;100.00;99886.53;2079158;28;20227;-75
2021/10/27 02:23:28;;;;;;;104.15;59.78;;;;;;;4.36;100.00;99888.63;2078737;28;20227;-77
2021/10/27 02:24:30;;;;;;;103.60;58.92;;;;;;;4.34;100.00;99887.22;2087569;28;20229;-76
2021/10/27 02:25:32;;;;;;;101.75;59.35;;;;;;;4.29;100.00;99895.88;2078812;28;20219;-76
2021/10/27 02:26:35;;;;;;;104.20;58.50;;;;;;;4.27;100.00;99894.50;2079545;28;20215;-76
2021/10/27 02:27:37;;;;;;;100.80;58.28;;;;;;;4.21;100.00;99896.22;2079476;28;20249;-76
2021/10/27 02:28:38;;;;;;;108.78;60.58;;;;;;;4.15;100.00;99902.44;2079162;28;20223;-76
2021/10/27 02:29:41;;;;;;;108.63;62.30;;;;;;;4.11;100.00;99896.81;2079192;28;20223;-75
2021/10/27 02:30:43;;;;;;;106.78;62.00;;;;;;;4.10;100.00;99897.88;2078946;28;20239;-75
2021/10/27 02:31:45;;;;;;;105.90;59.10;;;;;;;4.07;100.00;99900.16;2079725;28;20224;-76
2021/10/27 02:32:50;;;;;;;104.75;61.00;;;;;;;4.02;100.00;99900.06;2080594;28;20255;-76
2021/10/27 02:33:52;;;;;;;106.10;60.95;;;;;;;3.94;100.00;99901.22;2082054;28;20226;-76
2021/10/27 02:34:57;;;;;;;99.03;58.10;;;;;;;3.87;100.00;99909.25;2081463;28;20600;-76
2021/10/27 02:35:58;;;;;;;105.82;63.47;;;;;;;3.84;100.00;99909.72;2080398;28;20310;-76
2021/10/27 02:37:01;;;;;;;108.93;63.95;;;;;;;3.77;100.00;99911.66;2081130;28;20245;-76
2021/10/27 02:38:05;;;;;;;109.97;62.33;;;;;;;3.77;100.00;99911.66;2082022;28;20219;-75
2021/10/27 02:39:08;;;;;;;112.10;63.42;;;;;;;3.74;100.00;99906.06;2080672;28;20295;-75
2021/10/27 02:40:11;;;;;;;104.47;61.70;;;;;;;3.71;100.00;99912.56;2071834;28;20227;-75
2021/10/27 02:41:15;;;;;;;112.63;61.88;;;;;;;3.67;100.00;99911.44;2081180;28;20697;-76
2021/10/27 02:42:17;;;;;;;107.63;58.75;;;;;;;3.61;100.00;99912.34;2080894;28;20304;-75
2021/10/27 02:43:20;;;;;;;101.57;57.47;;;;;;;3.56;100.00;99915.69;2080752;28;20219;-74
2021/10/27 02:44:21;;;;;;;100.80;57.28;;;;;;;3.50;100.00;99911.31;2080652;28;20227;-75
2021/10/27 02:45:23;;;;;;;102.97;61.72;;;;;;;3.42;100.00;99913.50;2072052;28;20266;-76
2021/10/27 02:46:25;;;;;;;100.18;59.53;;;;;;;3.38;100.00;99913.94;2080984;28;20773;-75
2021/10/27 02:47:29;;;;;;;105.60;63.38;;;;;;;3.34;100.00;99918.06;2080974;28;20278;-75
2021/10/27 02:48:31;;;;;;;109.30;62.20;;;;;;;3.29;100.00;99909.22;2080795;28;20227;-74
2021/10/27 02:49:33;;;;;;;111.03;63.42;;;;;;;3.28;100.00;99912.88;2080546;28;20230;-75
2021/10/27 02:50:35;;;;;;;107.78;63.75;;;;;;;3.21;100.00;99909.53;2080953;28;20244;-74
2021/10/27 02:51:36;;;;;;;117.60;64.60;;;;;;;3.21;100.00;99906.91;2080804;28;20758;-75
2021/10/27 02:52:39;;;;;;;109.95;64.70;;;;;;;3.21;100.00;99915.63;2080544;28;20322;-75
2021/10/27 02:53:44;;;;;;;109.88;65.38;;;;;;;3.17;100.00;99911.84;2081686;28;20692;-74
2021/10/27 02:54:47;;;;;;;112.00;63.78;;;;;;;3.15;100.00;99913.91;2080483;28;20341;-75
2021/10/27 02:55:49;;;;;;;105.88;63.78;;;;;;;3.14;100.00;99920.22;2072455;28;20293;-75
2021/10/27 02:56:51;;;;;;;111.63;64.20;;;;;;;3.12;100.00;99927.53;2080865;28;20227;-76
2021/10/27 02:57:52;;;;;;;108.07;59.45;;;;;;;3.07;100.00;99922.13;2081159;28;20250;-76
2021/10/27 02:58:54;;;;;;;101.47;59.58;;;;;;;3.05;100.00;99924.22;2081673;28;20301;-76
2021/10/27 02:59:55;;;;;;;109.28;62.88;;;;;;;3.01;100.00;99923.03;2081612;28;20263;-75
2021/10/27 03:00:58;;;;;;;106.75;61.53;;;;;;;2.99;100.00;99919.81;2081517;28;20310;-75
2021/10/27 03:02:00;;;;;;;105.13;60.33;;;;;;;2.97;100.00;99922.69;2081448;28;20250;-75
2021/10/27 03:03:02;;;;;;;100.50;60.13;;;;;;;2.94;100.00;99917.84;2081743;28;20227;-75
2021/10/27 03:04:03;;;;;;;112.85;64.30;;;;;;;2.98;100.00;99920.84;2080401;28;20298;-75
2021/10/27 03:05:07;;;;;;;114.32;67.97;;;;;;;2.97;100.00;99924.53;2080860;28;20226;-75
2021/10/27 03:06:08;;;;;;;122.22;67.25;;;;;;;2.97;100.00;99927.16;2081222;28;20588;-75
2021/10/27 03:07:10;;;;;;;118.13;66.75;;;;;;;2.97;100.00;99922.69;2081588;28;20229;-76
2021/10/27 03:08:12;;;;;;;123.05;69.95;;;;;;;2.98;100.00;99926.13;2080158;28;20302;-76
2021/10/27 03:09:16;;;;;;;121.95;70.32;;;;;;;2.97;100.00;99924.53;2072342;28;20311;-76
2021/10/27 03:10:21;;;;;;;120.03;68.25;;;;;;;2.95;100.00;99923.91;2072316;28;20234;-75
2021/10/27 03:11:28;;;;;;;118.57;68.85;;;;;;;2.95;100.00;99929.19;2080674;28;20227;-75
2021/10/27 03:12:30;;;;;;;126.30;70.05;;;;;;;2.94;100.00;99924.94;2080751;28;20246;-74
2021/10/27 03:13:35;;;;;;;121.20;69.80;;;;;;;2.96;100.00;99928.19;2072825;28;20604;-74
2021/10/27 03:14:41;;;;;;;123.55;69.70;;;;;;;2.95;100.00;99929.19;2080676;28;20231;-75
2021/10/27 03:15:50;;;;;;;118.35;68.40;;;;;;;2.95;100.00;99926.56;2080236;28;20243;-75
2021/10/27 03:17:00;;;;;;;115.18;67.03;;;;;;;2.94;100.00;99925.75;2080479;28;20704;-75
2021/10/27 03:18:06;;;;;;;113.68;66.10;;;;;;;2.95;100.00;99926.56;2080290;28;20223;-75
2021/10/27 03:19:11;;;;;;;117.40;66.07;;;;;;;2.93;100.00;99920.72;2080427;28;20235;-75
2021/10/27 03:20:14;;;;;;;122.10;68.65;;;;;;;2.94;100.00;99936.28;2081564;28;20314;-75
2021/10/27 03:21:19;;;;;;;120.40;67.65;;;;;;;2.92;100.00;99935.72;2081464;28;20223;-76
2021/10/27 03:22:26;;;;;;;118.53;66.55;;;;;;;2.91;100.00;99939.38;2080131;28;20690;-75
2021/10/27 03:23:32;;;;;;;108.85;64.40;;;;;;;2.86;100.00;99936.59;2063036;28;20236;-76
2021/10/27 03:24:43;;;;;;;107.15;61.05;;;;;;;2.86;100.00;99941.88;2080872;28;20682;-75
2021/10/27 03:25:50;;;;;;;115.10;66.13;;;;;;;2.84;100.00;99949.22;2081058;28;20222;-76
2021/10/27 03:26:57;;;;;;;116.40;62.33;;;;;;;2.83;100.00;99947.59;2080830;28;20231;-75
2021/10/27 03:28:00;;;;;;;108.18;60.17;;;;;;;2.81;100.00;99947.84;2081451;28;20306;-75
2021/10/27 03:29:04;;;;;;;112.32;65.20;;;;;;;2.75;100.00;99940.81;2081349;28;20224;-75
2021/10/27 03:30:13;;;;;;;117.70;66.65;;;;;;;2.75;100.00;99946.09;2081441;28;20215;-75
2021/10/27 03:31:23;;;;;;;103.43;60.08;;;;;;;2.72;100.00;99946.53;2081248;28;20233;-75
2021/10/27 03:32:28;;;;;;;112.28;63.55;;;;;;;2.69;100.00;99946.97;2081105;28;20629;-76
2021/10/27 03:33:36;;;;;;;116.35;64.68;;;;;;;2.65;100.00;99945.00;2080205;28;20315;-76
2021/10/27 03:34:40;;;;;;;121.32;68.43;;;;;;;2.66;100.00;99947.41;2080318;28;20238;-76
2021/10/27 03:35:41;;;;;;;120.22;67.68;;;;;;;2.66;100.00;99951.88;2080631;28;20227;-76
2021/10/27 03:36:51;;;;;;;113.20;67.32;;;;;;;2.65;100.00;99948.44;2081294;28;20757;-76
2021/10/27 03:38:00;;;;;;;119.35;67.85;;;;;;;2.64;100.00;99949.47;2079569;28;20281;-76
2021/10/27 03:39:05;;;;;;;120.20;67.05;;;;;;;2.67;100.00;99954.28;2073398;28;20224;-77
2021/10/27 03:40:16;;;;;;;116.65;66.88;;;;;;;2.69;100.00;99954.06;2080127;28;20234;-76
2021/10/27 03:41:19;;;;;;;125.45;70.30;;;;;;;2.69;100.00;99944.31;2080373;28;20281;-76
2021/10/27 03:42:26;;;;;;;126.32;70.32;;;;;;;2.75;100.00;99951.34;2079866;28;20227;-76
2021/10/27 03:43:28;;;;;;;123.50;69.97;;;;;;;2.75;100.00;99955.81;2080990;28;20228;-76
2021/10/27 03:44:40;;;;;;;114.22;63.85;;;;;;;2.77;100.00;99953.75;2080451;28;20298;-76
2021/10/27 03:45:47;;;;;;;111.10;66.93;;;;;;;2.77;100.00;99959.84;2080963;28;20227;-76
2021/10/27 03:47:00;;;;;;;109.38;61.17;;;;;;;2.77;100.00;99962.47;2079944;28;20257;-76
2021/10/27 03:48:04;;;;;;;107.80;63.08;;;;;;;2.74;100.00;99954.22;2073776;28;20755;-76
2021/10/27 03:49:07;;;;;;;117.43;67.47;;;;;;;2.71;100.00;99950.19;2080477;28;20220;-76
2021/10/27 03:50:11;;;;;;;119.13;66.93;;;;;;;2.71;100.00;99965.22;2080195;28;20589;-76
2021/10/27 03:51:14;;;;;;;121.88;64.72;;;;;;;2.69;100.00;99967.25;2081065;28;20322;-76
2021/10/27 03:52:24;;;;;;;111.18;62.40;;;;;;;2.66;100.00;99962.41;2088418;28;20246;-76
2021/10/27 03:53:28;;;;;;;114.15;65.47;;;;;;;2.65;100.00;99964.25;2080987;28;20358;-76
2021/10/27 03:54:32;;;;;;;119.18;67.38;;;;;;;2.64;100.00;99960.00;2081092;28;20219;-76
2021/10/27 03:55:41;;;;;;;124.85;70.78;;;;;;;2.59;100.00;99959.88;2080998;28;20238;-76
2021/10/27 03:56:47;;;;;;;117.72;67.60;;;;;;;2.73;100.00;99971.84;2080622;28;20235;-76
2021/10/27 03:57:50;;;;;;;127.82;70.85;;;;;;;2.81;100.00;99970.75;2081359;28;20690;-76
2021/10/27 03:58:59;;;;;;;119.50;69.00;;;;;;;2.92;100.00;99969.19;2081281;28;20306;-76
2021/10/27 04:00:05;;;;;;;121.90;67.90;;;;;;;3.02;100.00;99970.25;2081042;28;20224;-76
2021/10/27 04:01:20;;;;;;;127.47;69.93;;;;;;;3.08;100.00;99973.84;2080973;28;20234;-76
2021/10/27 04:02:28;;;;;;;125.60;69.13;;;;;;;3.14;100.00;99969.50;2080681;28;20755;-76
2021/10/27 04:03:30;;;;;;;122.68;68.75;;;;;;;3.22;100.00;99966.56;2081208;28;20604;-76
2021/10/27 04:04:35;;;;;;;120.13;68.80;;;;;;;3.30;100.00;99974.94;2079899;28;20689;-76
2021/10/27 04:05:39;;;;;;;124.97;69.57;;;;;;;3.36;100.00;99968.75;2080397;28;20650;-75
2021/10/27 04:06:49;;;;;;;116.97;68.78;;;;;;;3.43;100.00;99979.19;2079395;28;20716;-76
2021/10/27 04:07:56;;;;;;;128.70;72.18;;;;;;;3.49;100.00;99972.22;2080610;28;20306;-76
2021/10/27 04:09:00;;;;;;;123.78;69.32;;;;;;;3.56;100.00;99972.91;2080859;28;20234;-76
2021/10/27 04:10:06;;;;;;;113.22;65.20;;;;;;;3.60;100.00;99969.59;2079514;28;20246;-76
2021/10/27 04:11:12;;;;;;;128.23;68.75;;;;;;;3.65;100.00;99966.28;2079764;28;20584;-76
2021/10/27 04:12:14;;;;;;;116.32;64.85;;;;;;;3.71;100.00;99970.63;2080917;28;20234;-76
2021/10/27 04:13:24;;;;;;;121.78;67.68;;;;;;;3.76;100.00;99968.13;2079952;28;20230;-76
2021/10/27 04:14:29;;;;;;;121.63;64.97;;;;;;;3.78;100.00;99976.63;2072479;28;20584;-76
2021/10/27 04:15:41;;;;;;;119.88;64.35;;;;;;;3.84;100.00;99970.44;2072645;28;20224;-76
2021/10/27 04:16:47;;;;;;;110.63;62.53;;;;;;;3.86;100.00;99968.34;2080050;28;20603;-76
2021/10/27 04:18:02;;;;;;;108.68;63.60;;;;;;;3.90;100.00;99969.50;2081063;28;20755;-76
2021/10/27 04:19:04;;;;;;;108.35;63.13;;;;;;;3.93;100.00;99971.69;2079760;28;20222;-75
2021/10/27 04:20:09;;;;;;;109.60;62.83;;;;;;;3.91;100.00;99965.03;2079960;28;20599;-76
2021/10/27 04:21:16;;;;;;;114.95;62.92;;;;;;;3.94;100.00;99965.38;2079830;28;20700;-76
2021/10/27 04:22:25;;;;;;;110.35;60.72;;;;;;;3.94;100.00;99978.56;2080112;28;20254;-76
2021/10/27 04:23:32;;;;;;;100.10;60.97;;;;;;;3.98;100.00;99970.97;2080789;28;20235;-77
2021/10/27 04:24:34;;;;;;;97.07;57.65;;;;;;;4.02;100.00;99966.88;2080881;28;20219;-76
2021/10/27 04:25:37;;;;;;;103.55;59.03;;;;;;;4.10;100.00;99968.34;2080835;28;20250;-76
2021/10/27 04:26:42;;;;;;;105.75;60.60;;;;;;;4.14;100.00;99964.22;2080848;28;20226;-76
2021/10/27 04:27:52;;;;;;;104.10;61.33;;;;;;;4.17;100.00;99961.09;2079761;28;20310;-76
2021/10/27 04:29:01;;;;;;;101.60;61.63;;;;;;;4.16;100.00;99962.13;2080084;28;20281;-77
2021/10/27 04:30:04;;;;;;;105.38;60.90;;;;;;;4.16;100.00;99962.94;2080836;28;20659;-76
2021/10/27 04:31:11;;;;;;;106.55;62.00;;;;;;;4.12;100.00;99955.72;2079963;28;20666;-77
2021/10/27 04:32:17;;;;;;;105.80;63.25;;;;;;;4.11;100.00;99968.13;2072322;28;20219;-76
2021/10/27 04:33:22;;;;;;;107.45;61.33;;;;;;;4.08;100.00;99957.19;2080076;28;20227;-76
2021/10/27 04:34:25;;;;;;;114.45;62.65;;;;;;;4.09;100.00;99966.75;2080510;28;20601;-77
2021/10/27 04:35:37;;;;;;;104.18;61.33;;;;;;;4.05;100.00;99961.13;2081082;28;20228;-76
2021/10/27 04:36:42;;;;;;;108.45;63.95;;;;;;;4.06;100.00;99960.06;2080277;28;20306;-76
2021/10/27 04:37:51;;;;;;;104.05;60.22;;;;;;;4.07;100.00;99966.16;2080916;28;20226;-76
2021/10/27 04:39:01;;;;;;;116.30;64.82;;;;;;;4.06;100.00;99961.91;2080558;28;20220;-76
2021/10/27 04:40:03;;;;;;;105.30;61.95;;;;;;;4.01;100.00;99954.69;2080989;28;20223;-75
2021/10/27 04:41:08;;;;;;;111.35;65.03;;;;;;;4.02;100.00;99963.44;2080933;28;20298;-76
2021/10/27 04:42:17;;;;;;;110.82;64.10;;;;;;;4.01;100.00;99959.97;2080246;28;20310;-76
2021/10/27 04:43:25;;;;;;;121.53;67.35;;;;;;;3.95;100.00;99960.91;2080954;28;20314;-76
2021/10/27 04:44:31;;;;;;;110.68;64.13;;;;;;;3.94;100.00;99959.28;2080433;28;20276;-76
2021/10/27 04:45:37;;;;;;;118.28;65.43;;;;;;;3.92;100.00;99967.44;2079611;28;20741;-76
2021/10/27 04:46:46;;;;;;;104.68;63.40;;;;;;;3.87;100.00;99962.03;2061722;28;20224;-76
2021/10/27 04:47:47;;;;;;;107.78;64.57;;;;;;;3.86;100.00;99963.06;2080346;28;20730;-76
2021/10/27 04:48:50;;;;;;;104.88;65.63;;;;;;;3.87;100.00;99967.31;2079974;28;20219;-76
2021/10/27 04:49:59;;;;;;;111.55;65.13;;;;;;;3.88;100.00;99971.56;2079295;28;20310;-76
2021/10/27 04:51:03;;;;;;;109.63;63.58;;;;;;;3.89;100.00;99975.81;2079930;28;20735;-76
2021/10/27 04:52:10;;;;;;;104.57;63.13;;;;;;;3.89;100.00;99972.38;2079459;28;20563;-76